Sy Clevelander — 2CWE8 — position and weather

sailwx.info

Track history (hours):
 
Tides and Currents Weather Stations Pressure Air Temp Water Temp Dewpoint Dewpoint Depression Visibility Wind Speed Wind Dir Waves Ship Positions

Sy Clevelander

Last reported at 2016-Nov-11 15:23 UTC. Time now 2017-Jan-23 18:49 UTC.
Position N 39°01' E 002°00'.
Warning: this ship's position is months out of date.

Length 25 m.

Type: Sailing vessel. MMSI: 235076308.

Date/timePositionNaut miles runAvg speedWind from/ knotsBaromVisibWave heightAir tempDewpointWater temp
2016-Nov-11 15:23N 39°01' E 002°00'7 8.6
2016-Nov-11 14:32N 39°05' E 002°08'30 7.6
2016-Nov-11 10:33N 39°28' E 002°34'7 6.4
2016-Nov-11 09:31N 39°34' E 002°38'0 0.0
2016-Nov-11 06:31N 39°34' E 002°38'0 0.0
2016-Nov-11 05:31N 39°34' E 002°38'0 0.0
2016-Nov-11 04:31N 39°34' E 002°38'0 0.0
2016-Nov-11 03:31N 39°34' E 002°38'0 0.0
2016-Nov-11 02:31N 39°34' E 002°38'0 0.0
2016-Nov-11 01:31N 39°34' E 002°38'0 0.0
2016-Nov-11 00:31N 39°34' E 002°38'0 0.0
2016-Nov-10 23:31N 39°34' E 002°38'0 0.0
2016-Nov-10 22:31N 39°34' E 002°38'0 0.0
2016-Nov-10 20:31N 39°34' E 002°38'0 0.0
2016-Nov-10 18:33N 39°34' E 002°38'0 0.0
2016-Nov-10 16:33N 39°34' E 002°38'0 0.0
2016-Nov-10 15:33N 39°34' E 002°38'0 0.0
2016-Nov-10 11:33N 39°34' E 002°38'0 0.0
2016-Nov-10 10:33N 39°34' E 002°38'0 0.0
2016-Nov-10 09:33N 39°34' E 002°38'0 0.0
2016-Nov-10 08:33N 39°34' E 002°38'0 0.0
2016-Nov-10 07:33N 39°34' E 002°38'0 0.0
2016-Nov-10 06:33N 39°34' E 002°38'0 0.0
2016-Nov-10 05:33N 39°34' E 002°38'0 0.0
2016-Nov-10 04:33N 39°34' E 002°38'0 0.0
2016-Nov-10 00:33N 39°34' E 002°38'0 0.0
2016-Nov-09 22:33N 39°34' E 002°38'0 0.0
2016-Nov-09 20:33N 39°34' E 002°38'0 0.0
2016-Nov-09 19:48N 39°34' E 002°38'0 0.0
2016-Nov-09 19:06N 39°34' E 002°38'0 0.0
2016-Nov-09 18:33N 39°34' E 002°38'0 0.0
2016-Nov-09 17:33N 39°34' E 002°38'0 0.0
2016-Nov-09 05:32N 39°34' E 002°38'0 0.0
2016-Nov-09 04:32N 39°34' E 002°38'0 0.0
2016-Nov-09 02:32N 39°34' E 002°38'0 0.0
2016-Nov-08 23:32N 39°34' E 002°38'0 0.0
2016-Nov-08 22:32N 39°34' E 002°38'0 0.0
2016-Nov-08 21:32N 39°34' E 002°38'0 0.0
2016-Nov-08 20:32N 39°34' E 002°38'0 0.0
2016-Nov-08 19:32N 39°34' E 002°38'0 0.0
2016-Nov-08 18:32N 39°34' E 002°38'0 0.0
2016-Nov-08 17:32N 39°34' E 002°38'0 0.0
2016-Nov-08 15:32N 39°34' E 002°38'301 7.9
2016-Nov-07 01:10N 38°58' E 009°04'15 5.7
2016-Nov-06 22:31N 39°13' E 009°07'0 0.0
2016-Nov-06 20:32N 39°13' E 009°07'0 0.0
2016-Nov-06 19:32N 39°13' E 009°07'0 0.0
2016-Nov-06 17:32N 39°13' E 009°07'0 0.0
2016-Nov-06 15:32N 39°13' E 009°07'0 0.0
2016-Nov-06 13:32N 39°13' E 009°07'0 0.0
2016-Nov-06 12:32N 39°13' E 009°07'0 0.0
2016-Nov-06 11:32N 39°13' E 009°07'0 0.0
2016-Nov-06 10:32N 39°13' E 009°07'0 0.0
2016-Nov-06 08:32N 39°13' E 009°07'0 0.0
2016-Nov-06 07:32N 39°13' E 009°07'0 0.0
2016-Nov-05 23:32N 39°13' E 009°07'0 0.0
2016-Nov-05 21:32N 39°13' E 009°07'0 0.0
2016-Nov-05 20:41N 39°13' E 009°07'0 0.0
2016-Nov-05 20:32N 39°13' E 009°07'0 0.0
2016-Nov-05 16:33N 39°13' E 009°07'0 0.0
2016-Nov-05 12:33N 39°13' E 009°07'0 0.0
2016-Nov-05 11:33N 39°13' E 009°07'0 0.0
2016-Nov-05 10:33N 39°13' E 009°07'0 0.3
2016-Nov-05 09:33N 39°12' E 009°07'7 7.4
2016-Nov-05 08:33N 39°07' E 009°13'  
Track history (hours):
 
Tides and Currents Weather Stations Pressure Air Temp Water Temp Dewpoint Dewpoint Depression Visibility Wind Speed Wind Dir Waves Ship Positions

Sy Clevelander

Last reported at 2016-Nov-11 15:23 UTC. Time now 2017-Jan-23 18:49 UTC.
Position N 39°01' E 002°00'.
Warning: this ship's position is months out of date.

Length 25 m.

Type: Sailing vessel. MMSI: 235076308.

Date/timePositionNaut miles runAvg speedWind from/ knotsBaromVisibWave heightAir tempDewpointWater temp
2016-Nov-11 15:23N 39°01' E 002°00'7 8.6
2016-Nov-11 14:32N 39°05' E 002°08'30 7.6
2016-Nov-11 10:33N 39°28' E 002°34'7 6.4
2016-Nov-11 09:31N 39°34' E 002°38'0 0.0
2016-Nov-11 06:31N 39°34' E 002°38'0 0.0
2016-Nov-11 05:31N 39°34' E 002°38'0 0.0
2016-Nov-11 04:31N 39°34' E 002°38'0 0.0
2016-Nov-11 03:31N 39°34' E 002°38'0 0.0
2016-Nov-11 02:31N 39°34' E 002°38'0 0.0
2016-Nov-11 01:31N 39°34' E 002°38'0 0.0
2016-Nov-11 00:31N 39°34' E 002°38'0 0.0
2016-Nov-10 23:31N 39°34' E 002°38'0 0.0
2016-Nov-10 22:31N 39°34' E 002°38'0 0.0
2016-Nov-10 20:31N 39°34' E 002°38'0 0.0
2016-Nov-10 18:33N 39°34' E 002°38'0 0.0
2016-Nov-10 16:33N 39°34' E 002°38'0 0.0
2016-Nov-10 15:33N 39°34' E 002°38'0 0.0
2016-Nov-10 11:33N 39°34' E 002°38'0 0.0
2016-Nov-10 10:33N 39°34' E 002°38'0 0.0
2016-Nov-10 09:33N 39°34' E 002°38'0 0.0
2016-Nov-10 08:33N 39°34' E 002°38'0 0.0
2016-Nov-10 07:33N 39°34' E 002°38'0 0.0
2016-Nov-10 06:33N 39°34' E 002°38'0 0.0
2016-Nov-10 05:33N 39°34' E 002°38'0 0.0
2016-Nov-10 04:33N 39°34' E 002°38'0 0.0
2016-Nov-10 00:33N 39°34' E 002°38'0 0.0
2016-Nov-09 22:33N 39°34' E 002°38'0 0.0
2016-Nov-09 20:33N 39°34' E 002°38'0 0.0
2016-Nov-09 19:48N 39°34' E 002°38'0 0.0
2016-Nov-09 19:06N 39°34' E 002°38'0 0.0
2016-Nov-09 18:33N 39°34' E 002°38'0 0.0
2016-Nov-09 17:33N 39°34' E 002°38'0 0.0
2016-Nov-09 05:32N 39°34' E 002°38'0 0.0
2016-Nov-09 04:32N 39°34' E 002°38'0 0.0
2016-Nov-09 02:32N 39°34' E 002°38'0 0.0
2016-Nov-08 23:32N 39°34' E 002°38'0 0.0
2016-Nov-08 22:32N 39°34' E 002°38'0 0.0
2016-Nov-08 21:32N 39°34' E 002°38'0 0.0
2016-Nov-08 20:32N 39°34' E 002°38'0 0.0
2016-Nov-08 19:32N 39°34' E 002°38'0 0.0
2016-Nov-08 18:32N 39°34' E 002°38'0 0.0
2016-Nov-08 17:32N 39°34' E 002°38'0 0.0
2016-Nov-08 15:32N 39°34' E 002°38'301 7.9
2016-Nov-07 01:10N 38°58' E 009°04'15 5.7
2016-Nov-06 22:31N 39°13' E 009°07'0 0.0
2016-Nov-06 20:32N 39°13' E 009°07'0 0.0
2016-Nov-06 19:32N 39°13' E 009°07'0 0.0
2016-Nov-06 17:32N 39°13' E 009°07'0 0.0
2016-Nov-06 15:32N 39°13' E 009°07'0 0.0
2016-Nov-06 13:32N 39°13' E 009°07'0 0.0
2016-Nov-06 12:32N 39°13' E 009°07'0 0.0
2016-Nov-06 11:32N 39°13' E 009°07'0 0.0
2016-Nov-06 10:32N 39°13' E 009°07'0 0.0
2016-Nov-06 08:32N 39°13' E 009°07'0 0.0
2016-Nov-06 07:32N 39°13' E 009°07'0 0.0
2016-Nov-05 23:32N 39°13' E 009°07'0 0.0
2016-Nov-05 21:32N 39°13' E 009°07'0 0.0
2016-Nov-05 20:41N 39°13' E 009°07'0 0.0
2016-Nov-05 20:32N 39°13' E 009°07'0 0.0
2016-Nov-05 16:33N 39°13' E 009°07'0 0.0
2016-Nov-05 12:33N 39°13' E 009°07'0 0.0
2016-Nov-05 11:33N 39°13' E 009°07'0 0.0
2016-Nov-05 10:33N 39°13' E 009°07'0 0.3
2016-Nov-05 09:33N 39°12' E 009°07'7 7.4
2016-Nov-05 08:33N 39°07' E 009°13'  

Dump ship's entire track history